Time;durP1;ratioP1;P1;durP2;ratioP2;P2;SDS_P1;SDS_P2;PMS_P1;PMS_P2;Temp;Humidity;BMP_temperature;BMP_pressure;BME280_temperature;BME280_humidity;BME280_pressure;Samples;Min_cycle;Max_cycle;Signal;HPM_P1;HPM_P2
2022/07/01 00:00:04;;;;;;;4.25;3.47;;;;;;;24.86;41.56;94893.91;4958862;28;20243;-65
2022/07/01 00:02:30;;;;;;;6.70;3.50;;;;;;;24.80;41.71;94900.22;4959323;28;20224;-65
2022/07/01 00:04:55;;;;;;;6.07;4.00;;;;;;;24.88;41.82;94899.81;4967943;28;20279;-65
2022/07/01 00:07:21;;;;;;;5.35;3.50;;;;;;;24.81;41.37;94888.44;4971961;28;20291;-66
2022/07/01 00:09:46;;;;;;;5.95;3.63;;;;;;;24.86;41.53;94893.91;4970930;28;20226;-65
2022/07/01 00:12:11;;;;;;;4.57;3.17;;;;;;;24.65;41.79;94898.91;4963476;28;20309;-65
2022/07/01 00:14:37;;;;;;;4.57;3.40;;;;;;;24.62;41.76;94902.09;4967428;28;20738;-65
2022/07/01 00:17:03;;;;;;;3.70;3.30;;;;;;;24.67;42.19;94900.53;4971932;28;20719;-64
2022/07/01 00:19:28;;;;;;;6.28;3.15;;;;;;;24.55;42.20;94903.31;4979208;28;20355;-64
2022/07/01 00:21:54;;;;;;;6.40;3.58;;;;;;;24.60;42.10;94906.88;4964537;28;20239;-65
2022/07/01 00:24:19;;;;;;;4.22;3.17;;;;;;;24.60;41.80;94909.59;4965770;28;20286;-65
2022/07/01 00:26:45;;;;;;;5.28;3.10;;;;;;;24.52;42.40;94909.97;4961108;28;20231;-65
2022/07/01 00:29:10;;;;;;;6.43;3.38;;;;;;;24.50;42.15;94906.69;4968575;28;20248;-65
2022/07/01 00:31:36;;;;;;;7.78;3.55;;;;;;;24.53;42.42;94908.91;4963828;28;20609;-65
2022/07/01 00:34:02;;;;;;;5.95;2.90;;;;;;;24.53;42.43;94913.47;4958398;28;20564;-66
2022/07/01 00:36:28;;;;;;;4.88;3.30;;;;;;;24.47;42.39;94912.56;4964119;28;20212;-65
2022/07/01 00:38:53;;;;;;;4.38;3.22;;;;;;;24.50;42.24;94917.47;4962661;28;20282;-65
2022/07/01 00:41:19;;;;;;;3.95;3.45;;;;;;;24.42;42.21;94910.56;4965950;28;20225;-67
2022/07/01 00:43:44;;;;;;;3.75;3.35;;;;;;;24.32;42.73;94904.19;4969455;28;20224;-65
2022/07/01 00:46:10;;;;;;;3.22;2.92;;;;;;;24.31;42.86;94913.31;4970868;28;20232;-67
2022/07/01 00:48:36;;;;;;;5.32;3.17;;;;;;;24.26;42.78;94915.91;4963175;28;20228;-66
2022/07/01 00:51:02;;;;;;;3.20;2.90;;;;;;;24.27;43.34;94914.84;4969132;28;20273;-65
2022/07/01 00:53:29;;;;;;;4.53;3.70;;;;;;;24.13;43.44;94915.13;4967805;28;20278;-65
2022/07/01 00:55:55;;;;;;;4.03;3.30;;;;;;;24.13;43.47;94922.38;4972648;28;20228;-70
2022/07/01 00:58:20;;;;;;;3.95;3.08;;;;;;;24.10;43.23;94912.91;4965650;28;20758;-65
2022/07/01 01:00:46;;;;;;;5.57;3.30;;;;;;;24.12;43.48;94921.56;4962667;28;20216;-65
2022/07/01 01:03:11;;;;;;;8.80;3.38;;;;;;;23.96;44.09;94920.44;4967523;28;20228;-65
2022/07/01 01:05:41;;;;;;;5.43;3.35;;;;;;;23.83;44.65;94915.31;4984221;28;20223;-65
2022/07/01 01:08:12;;;;;;;4.45;3.17;;;;;;;23.92;44.17;94915.75;4964681;28;20228;-65
2022/07/01 01:10:38;;;;;;;4.85;3.33;;;;;;;23.84;44.54;94922.31;4957240;28;20200;-66
2022/07/01 01:13:04;;;;;;;3.80;3.13;;;;;;;23.82;44.53;94920.91;4964728;28;20684;-65
2022/07/01 01:15:30;;;;;;;5.88;4.40;;;;;;;23.82;44.46;94927.13;4962550;28;20227;-65
2022/07/01 01:17:56;;;;;;;3.30;3.00;;;;;;;23.84;44.49;94924.19;4984251;28;20495;-65
2022/07/01 01:20:22;;;;;;;7.25;3.40;;;;;;;23.82;44.68;94920.91;4965318;28;20266;-65
2022/07/01 01:22:48;;;;;;;4.40;3.25;;;;;;;23.70;44.74;94918.22;4981342;28;20243;-65
2022/07/01 01:25:14;;;;;;;4.35;3.25;;;;;;;23.65;45.01;94915.44;4959910;28;20235;-65
2022/07/01 01:27:40;;;;;;;4.07;3.15;;;;;;;23.71;44.86;94904.63;4973903;28;20323;-66
2022/07/01 01:30:08;;;;;;;4.35;3.80;;;;;;;23.70;44.82;94911.00;4964090;28;20288;-66
2022/07/01 01:32:33;;;;;;;7.63;3.60;;;;;;;23.50;45.25;94918.63;4951978;28;20247;-66
2022/07/01 01:34:59;;;;;;;4.70;3.13;;;;;;;23.50;45.37;94914.06;4969694;28;20208;-65
2022/07/01 01:37:25;;;;;;;6.07;3.40;;;;;;;23.42;45.71;94917.09;4974455;28;20200;-65
2022/07/01 01:39:50;;;;;;;6.35;3.42;;;;;;;23.46;46.00;94925.50;4961787;28;20224;-65
2022/07/01 01:42:16;;;;;;;5.75;3.63;;;;;;;23.41;46.01;94931.56;4956077;28;20241;-65
2022/07/01 01:44:41;;;;;;;6.13;3.50;;;;;;;23.40;46.43;94929.13;4962046;28;20366;-65
2022/07/01 01:47:07;;;;;;;4.50;4.00;;;;;;;23.03;47.36;94923.97;4977139;28;20300;-65
2022/07/01 01:49:33;;;;;;;5.93;3.60;;;;;;;22.96;47.56;94924.09;4967297;28;20203;-64
2022/07/01 01:52:02;;;;;;;4.00;3.58;;;;;;;23.10;47.07;94920.13;4971498;28;20236;-65
2022/07/01 01:54:28;;;;;;;5.15;3.40;;;;;;;23.16;47.12;94926.41;4969147;28;20311;-64
2022/07/01 01:56:53;;;;;;;4.72;3.58;;;;;;;23.12;47.14;94925.25;4968387;28;20335;-65
2022/07/01 01:59:19;;;;;;;5.32;3.60;;;;;;;23.19;47.12;94920.59;4970978;28;20220;-65
2022/07/01 02:01:44;;;;;;;3.97;3.60;;;;;;;23.32;47.38;94928.41;4970169;28;20216;-65
2022/07/01 02:04:10;;;;;;;4.43;4.03;;;;;;;23.29;47.50;94928.88;4969412;28;20215;-65
2022/07/01 02:06:36;;;;;;;4.32;3.92;;;;;;;23.18;47.90;94931.56;4965660;28;20231;-65
2022/07/01 02:09:01;;;;;;;4.93;4.13;;;;;;;23.25;47.67;94930.38;4963049;28;20253;-65
2022/07/01 02:11:27;;;;;;;6.88;4.47;;;;;;;23.26;47.98;94932.03;4968580;28;20285;-65
2022/07/01 02:13:52;;;;;;;4.88;4.22;;;;;;;23.08;48.14;94929.44;4970052;28;20751;-65
2022/07/01 02:16:18;;;;;;;4.95;4.53;;;;;;;22.82;49.33;94942.19;4966434;28;20211;-64
2022/07/01 02:18:43;;;;;;;5.65;4.43;;;;;;;22.80;49.35;94944.31;4968009;28;20640;-65
2022/07/01 02:21:09;;;;;;;5.85;4.82;;;;;;;22.81;48.96;94943.25;4966778;28;20259;-64
2022/07/01 02:23:34;;;;;;;6.80;4.13;;;;;;;22.49;50.78;94945.38;4969895;28;20904;-65
2022/07/01 02:25:59;;;;;;;4.53;3.95;;;;;;;22.60;50.52;94947.25;4968771;28;20566;-65
2022/07/01 02:28:25;;;;;;;6.53;4.68;;;;;;;22.05;51.97;94941.97;4972486;28;20319;-64
2022/07/01 02:30:50;;;;;;;5.53;4.05;;;;;;;22.16;51.86;94949.28;4971720;28;20322;-64
2022/07/01 02:33:16;;;;;;;7.03;4.20;;;;;;;22.05;52.42;94944.66;4966465;28;20240;-64
2022/07/01 02:35:41;;;;;;;5.47;4.22;;;;;;;22.31;51.83;94954.25;4965963;28;20220;-65
2022/07/01 02:38:08;;;;;;;4.85;4.45;;;;;;;22.51;50.91;94958.53;4964184;28;20581;-65
2022/07/01 02:40:37;;;;;;;5.45;4.68;;;;;;;22.33;51.62;94964.75;4969316;28;20196;-66
2022/07/01 02:43:03;;;;;;;7.47;5.35;;;;;;;22.37;51.42;94972.13;4965942;28;20669;-66
2022/07/01 02:45:28;;;;;;;5.95;5.18;;;;;;;;;;4970807;28;20309;-66
2022/07/01 02:47:53;;;;;;;5.90;4.88;;;;;;;22.38;51.84;94963.03;4973374;28;20294;-65
2022/07/01 02:50:19;;;;;;;7.07;6.00;;;;;;;22.12;52.33;94968.69;4966875;28;20239;-65
2022/07/01 02:52:45;;;;;;;9.88;5.75;;;;;;;22.24;51.91;94974.97;4971745;28;20215;-64
2022/07/01 02:55:12;;;;;;;8.20;5.43;;;;;;;22.21;52.33;94976.25;4974409;28;20200;-70
2022/07/01 02:57:39;;;;;;;8.95;6.03;;;;;;;21.95;53.17;94977.34;4972187;28;20224;-68
2022/07/01 03:00:07;;;;;;;6.15;5.55;;;;;;;21.98;53.09;94974.19;4972905;28;20216;-68
2022/07/01 03:02:33;;;;;;;6.40;5.32;;;;;;;22.01;53.21;94984.47;4965181;28;20220;-68
2022/07/01 03:05:00;;;;;;;6.72;5.13;;;;;;;22.20;52.06;94979.13;4970071;28;20227;-68
2022/07/01 03:07:25;;;;;;;7.53;5.75;;;;;;;22.05;52.72;94981.34;4970660;28;20572;-67
2022/07/01 03:09:52;;;;;;;5.82;5.20;;;;;;;21.74;53.72;94983.13;4962287;28;20691;-66
2022/07/01 03:12:29;;;;;;;8.73;5.40;;;;;;;21.93;53.85;94989.31;4966024;28;20226;-68
2022/07/01 03:15:00;;;;;;;7.72;5.32;;;;;;;21.77;54.58;94996.06;4962298;28;20216;-69
2022/07/01 03:17:28;;;;;;;6.15;5.22;;;;;;;21.81;54.94;95002.59;4969173;28;20755;-67
2022/07/01 03:19:55;;;;;;;7.20;5.65;;;;;;;21.85;54.98;95002.97;4971312;28;20204;-68
2022/07/01 03:37:52;;;;;;;7.95;5.43;;;;;;;21.83;55.79;94997.03;5206932;23;20235;-65
2022/07/01 03:40:17;;;;;;;8.23;5.53;;;;;;;21.88;54.84;94998.00;4974957;28;20239;-65
2022/07/01 03:42:43;;;;;;;10.25;6.22;;;;;;;21.94;54.82;94991.75;4965607;28;20223;-66
2022/07/01 03:45:08;;;;;;;6.97;6.28;;;;;;;22.12;54.30;95001.63;4969638;28;20238;-65
2022/07/01 03:47:34;;;;;;;9.52;6.05;;;;;;;22.21;54.78;94991.47;4966500;28;20232;-66
2022/07/01 03:49:59;;;;;;;7.32;6.60;;;;;;;22.08;54.03;94997.78;4972406;28;20242;-67
